Time;durP1;ratioP1;P1;durP2;ratioP2;P2;SDS_P1;SDS_P2;PMS_P1;PMS_P2;Temp;Humidity;BMP_temperature;BMP_pressure;BME280_temperature;BME280_humidity;BME280_pressure;Samples;Min_cycle;Max_cycle;Signal;HPM_P1;HPM_P2
2022/10/07 00:02:24;;;;;;;5.70;3.40;;;;;;;18.24;63.50;97729.25;10508002;28;20573;-28
2022/10/07 00:07:24;;;;;;;5.93;2.53;;;;;;;18.22;61.63;97724.16;10513199;28;20487;-28
2022/10/07 00:12:25;;;;;;;4.57;3.10;;;;;;;18.22;61.43;97716.56;10511554;28;20036;-29
2022/10/07 00:17:25;;;;;;;6.45;4.50;;;;;;;18.21;61.63;97716.50;10512451;28;20508;-29
2022/10/07 00:22:25;;;;;;;4.83;3.40;;;;;;;18.21;61.45;97711.44;10514443;28;20043;-28
2022/10/07 00:27:26;;;;;;;3.73;2.73;;;;;;;18.21;61.30;97716.50;10513264;28;20028;-28
2022/10/07 00:32:26;;;;;;;4.97;2.97;;;;;;;18.21;61.38;97713.97;10518503;28;20024;-29
2022/10/07 00:37:27;;;;;;;4.40;3.00;;;;;;;18.20;61.41;97703.00;10519806;28;20025;-28
2022/10/07 00:42:29;;;;;;;6.20;3.40;;;;;;;18.21;61.53;97708.91;10507923;28;20111;-29
2022/10/07 00:47:32;;;;;;;4.22;3.20;;;;;;;18.20;61.08;97692.88;10513885;28;20105;-28
2022/10/07 00:52:55;;;;;;;5.68;3.67;;;;;;;18.19;62.96;97690.28;10522214;28;20028;-28
2022/10/07 00:58:00;;;;;;;5.95;4.07;;;;;;;18.22;63.49;97690.34;10509824;28;20032;-28
2022/10/07 01:03:01;;;;;;;5.07;3.03;;;;;;;18.22;63.24;97675.13;10512472;28;20036;-28
2022/10/07 01:08:02;;;;;;;6.07;2.92;;;;;;;18.17;62.58;97671.69;10511805;28;20055;-28
2022/10/07 01:13:04;;;;;;;5.50;3.13;;;;;;;18.21;61.44;97678.50;10518230;28;20487;-29
2022/10/07 01:18:07;;;;;;;5.30;3.38;;;;;;;18.19;61.19;97668.34;10516736;28;20029;-28
2022/10/07 01:23:33;;;;;;;3.83;2.90;;;;;;;18.20;61.21;97669.19;10511991;28;20029;-30
2022/10/07 01:28:38;;;;;;;6.03;3.25;;;;;;;18.20;61.26;97664.13;10512535;28;20024;-29
2022/10/07 01:33:40;;;;;;;3.65;2.30;;;;;;;18.19;61.21;97649.75;10513748;28;20051;-29
2022/10/07 01:38:48;;;;;;;5.28;3.15;;;;;;;18.20;61.22;97646.38;10512078;28;20432;-29
2022/10/07 01:43:52;;;;;;;5.10;2.92;;;;;;;18.19;61.15;97634.53;10511235;28;20032;-28
2022/10/07 01:48:53;;;;;;;5.22;3.25;;;;;;;18.18;61.13;97630.31;10509261;28;20024;-28
2022/10/07 01:54:13;;;;;;;5.90;3.28;;;;;;;18.19;61.04;97629.47;10508341;28;21001;-28
2022/10/07 01:59:39;;;;;;;6.53;3.95;;;;;;;18.21;63.43;97620.19;10515341;28;20462;-29
2022/10/07 02:04:57;;;;;;;4.47;3.35;;;;;;;18.21;63.46;97617.66;10513113;28;20105;-29
2022/10/07 02:10:11;;;;;;;5.65;3.03;;;;;;;18.19;62.59;97616.78;10505739;28;20074;-29
2022/10/07 02:15:15;;;;;;;3.38;2.47;;;;;;;18.18;61.53;97612.56;10509317;28;20035;-28
2022/10/07 02:20:20;;;;;;;4.20;2.90;;;;;;;18.17;61.41;97600.72;10511680;28;20051;-29
2022/10/07 02:25:24;;;;;;;5.45;3.15;;;;;;;18.17;61.34;97595.66;10514084;28;20029;-28
2022/10/07 02:30:24;;;;;;;6.05;3.00;;;;;;;18.18;61.23;97585.50;10509924;28;20028;-29
2022/10/07 02:35:32;;;;;;;4.88;3.10;;;;;;;18.18;61.02;97587.22;10512425;28;20032;-28
2022/10/07 02:40:38;;;;;;;3.83;2.72;;;;;;;18.17;61.21;97578.75;10507323;28;20050;-28
2022/10/07 02:45:48;;;;;;;5.05;2.60;;;;;;;18.18;61.39;97582.16;10507786;28;20025;-29
2022/10/07 02:50:55;;;;;;;4.43;2.42;;;;;;;18.17;61.05;97586.34;10504233;28;20032;-28
2022/10/07 02:55:56;;;;;;;;;;;;;;;18.17;61.07;97581.28;10509099;28;20500;-29
2022/10/07 03:01:00;;;;;;;5.18;3.40;;;;;;;18.14;63.11;97573.63;10509479;28;19916;-29
2022/10/07 03:06:00;;;;;;;5.80;3.55;;;;;;;18.20;63.34;97581.34;10502272;28;20528;-28
2022/10/07 03:11:02;;;;;;;5.20;3.00;;;;;;;18.21;63.17;97587.25;10514978;28;20031;-28
2022/10/07 03:16:04;;;;;;;7.30;3.30;;;;;;;18.17;62.33;97585.50;10507596;28;20020;-29
2022/10/07 03:21:06;;;;;;;4.75;2.70;;;;;;;18.16;61.66;97586.34;10505640;28;20016;-29
2022/10/07 03:26:07;;;;;;;5.65;3.15;;;;;;;18.18;61.46;97577.06;10508113;28;20035;-30
2022/10/07 03:31:10;;;;;;;3.92;2.92;;;;;;;18.16;61.21;97564.38;10508749;28;20024;-28
2022/10/07 03:36:16;;;;;;;4.07;2.63;;;;;;;18.15;61.57;97571.97;10506961;28;20055;-28
2022/10/07 03:41:19;;;;;;;3.88;2.78;;;;;;;18.13;61.27;97569.41;10495804;28;20024;-29
2022/10/07 03:46:22;;;;;;;5.00;2.13;;;;;;;18.16;61.09;97571.97;10513193;28;20506;-28
2022/10/07 03:51:24;;;;;;;4.95;2.65;;;;;;;18.15;61.93;97566.91;10510701;28;20511;-28
2022/10/07 03:56:24;;;;;;;4.40;2.60;;;;;;;18.13;61.12;97558.41;10508807;28;20039;-28
2022/10/07 04:01:25;;;;;;;4.75;3.15;;;;;;;18.14;62.67;97555.91;10514303;28;20107;-29
2022/10/07 04:06:30;;;;;;;5.00;3.22;;;;;;;18.18;63.21;97566.94;10516604;28;20020;-27
2022/10/07 04:11:31;;;;;;;6.22;3.17;;;;;;;18.19;63.11;97566.97;10514645;28;21744;-28
2022/10/07 04:16:32;;;;;;;3.83;3.40;;;;;;;18.15;63.28;97556.78;10521436;28;20039;-28
2022/10/07 04:21:33;;;;;;;5.03;2.88;;;;;;;18.18;62.06;97566.94;10509368;28;20606;-28
2022/10/07 04:26:34;;;;;;;5.47;2.90;;;;;;;18.16;61.36;97551.69;10515004;28;20036;-28
2022/10/07 04:31:36;;;;;;;3.58;2.53;;;;;;;18.17;60.98;97552.56;10520220;28;20063;-28
2022/10/07 04:36:38;;;;;;;3.70;2.53;;;;;;;18.15;60.99;97549.16;10516201;28;20031;-28
2022/10/07 04:41:42;;;;;;;3.17;2.47;;;;;;;18.16;61.11;97543.25;10508187;28;20123;-28
2022/10/07 04:46:48;;;;;;;3.67;3.07;;;;;;;18.15;61.18;97536.50;10515510;28;20028;-28
2022/10/07 04:51:51;;;;;;;3.78;2.55;;;;;;;18.16;60.95;97535.66;10517947;28;20024;-28
2022/10/07 04:56:52;;;;;;;4.78;2.38;;;;;;;18.14;60.53;97535.63;10504215;28;20052;-29
2022/10/07 05:01:57;;;;;;;4.10;2.72;;;;;;;17.96;62.16;97532.81;10513667;28;20024;-28
2022/10/07 05:06:58;;;;;;;13.27;4.55;;;;;;;18.06;63.14;97523.66;10510466;28;20036;-29
2022/10/07 05:11:59;;;;;;;12.63;3.45;;;;;;;18.17;62.44;97519.63;10514895;28;20543;-30
2022/10/07 05:17:00;;;;;;;6.35;3.03;;;;;;;18.07;61.90;97515.25;10519638;28;20032;-29
2022/10/07 05:22:05;;;;;;;4.25;2.17;;;;;;;17.87;61.92;97519.16;10514542;28;20020;-28
2022/10/07 05:27:06;;;;;;;5.35;3.00;;;;;;;18.04;61.65;97512.66;10507482;28;20496;-28
2022/10/07 05:32:06;;;;;;;27.52;5.78;;;;;;;18.15;61.88;97521.28;10513336;28;20032;-28
2022/10/07 05:37:07;;;;;;;9.88;3.17;;;;;;;18.15;61.72;97524.66;10514730;28;20032;-28
2022/10/07 05:42:08;;;;;;;10.70;3.00;;;;;;;18.14;61.38;97519.56;10506891;28;20029;-29
2022/10/07 05:47:17;;;;;;;5.75;3.03;;;;;;;18.17;61.24;97519.63;10512263;28;20582;-29
2022/10/07 05:52:19;;;;;;;3.17;2.28;;;;;;;18.14;61.04;97522.94;10517261;28;20499;-28
2022/10/07 05:57:21;;;;;;;5.85;2.72;;;;;;;18.15;61.07;97517.06;10513939;28;20046;-29
2022/10/07 06:02:22;;;;;;;6.82;2.72;;;;;;;18.17;61.09;97520.44;10509677;28;20031;-30
2022/10/07 06:07:24;;;;;;;6.53;2.80;;;;;;;18.15;61.11;97511.97;10505234;28;20515;-27
2022/10/07 06:17:48;;;;;;;9.30;3.95;;;;;;;18.07;61.95;97502.59;10510852;28;20024;-28
2022/10/07 06:22:53;;;;;;;5.68;2.78;;;;;;;18.14;61.61;97505.22;10502908;28;20024;-29
2022/10/07 06:27:56;;;;;;;11.25;3.90;;;;;;;18.14;61.35;97510.28;10508310;28;20119;-29
2022/10/07 06:32:57;;;;;;;8.05;2.42;;;;;;;18.17;60.96;97514.53;10510857;28;20604;-30
2022/10/07 06:37:58;;;;;;;6.50;2.83;;;;;;;18.19;61.30;97507.81;10515710;28;20036;-28
2022/10/07 06:42:59;;;;;;;5.47;3.10;;;;;;;18.20;61.30;97512.03;10502688;28;20024;-29
2022/10/07 06:48:10;;;;;;;10.00;3.22;;;;;;;18.13;61.28;97518.72;10514575;28;20047;-28
2022/10/07 06:53:11;;;;;;;6.30;3.28;;;;;;;18.15;61.62;97517.06;10503409;28;20146;-28
2022/10/07 06:58:12;;;;;;;6.63;3.47;;;;;;;18.14;61.51;97512.81;10513137;28;20016;-29
2022/10/07 07:03:14;;;;;;;6.72;4.03;;;;;;;18.17;61.63;97515.38;10509214;28;20047;-29
2022/10/07 07:08:16;;;;;;;5.63;3.85;;;;;;;18.17;61.46;97510.31;10484149;28;20120;-29
2022/10/07 07:13:17;;;;;;;8.98;3.72;;;;;;;18.14;62.08;97505.22;10503192;28;20043;-29
2022/10/07 07:18:17;;;;;;;7.28;3.35;;;;;;;18.04;62.04;97511.00;10511285;28;20021;-29
2022/10/07 07:23:18;;;;;;;4.65;3.22;;;;;;;17.92;61.89;97520.09;10507086;28;20034;-28
2022/10/07 07:28:19;;;;;;;4.18;2.78;;;;;;;17.98;62.32;97527.78;10506504;28;20136;-29
2022/10/07 07:33:20;;;;;;;8.23;3.45;;;;;;;18.06;62.37;97516.06;10508759;28;20032;-28
2022/10/07 07:38:21;;;;;;;13.35;3.33;;;;;;;17.90;62.09;97483.75;10507478;28;20028;-29
2022/10/07 07:43:21;;;;;;;4.03;2.77;;;;;;;18.13;61.69;97505.19;10496345;28;20058;-29
2022/10/07 07:48:22;;;;;;;4.70;2.92;;;;;;;18.12;61.74;97506.88;10505182;28;20024;-28
2022/10/07 07:53:23;;;;;;;4.25;2.88;;;;;;;18.14;61.66;97509.41;10502335;28;20047;-28
2022/10/07 07:58:24;;;;;;;4.10;2.47;;;;;;;18.14;61.67;97500.16;10497253;28;20526;-28
2022/10/07 08:03:26;;;;;;;5.18;2.95;;;;;;;18.15;61.25;97495.94;10509374;28;20029;-28
2022/10/07 08:08:28;;;;;;;4.35;2.72;;;;;;;18.10;61.63;97489.94;10506020;28;20142;-28
2022/10/07 08:13:28;;;;;;;4.75;2.60;;;;;;;18.11;61.53;97494.19;10509795;28;20027;-28
2022/10/07 08:18:28;;;;;;;4.80;2.80;;;;;;;18.14;62.30;97495.06;10504851;28;20381;-28
2022/10/07 08:23:29;;;;;;;6.35;2.85;;;;;;;18.09;62.61;97475.56;10512578;28;20028;-29
2022/10/07 08:28:31;;;;;;;3.92;2.60;;;;;;;18.13;62.60;97484.91;10506077;28;20450;-28
2022/10/07 08:33:35;;;;;;;5.28;2.42;;;;;;;18.15;61.88;97485.81;10503196;28;20560;-29
2022/10/07 08:38:38;;;;;;;10.02;3.08;;;;;;;18.15;61.60;97486.63;10511770;28;20104;-28
2022/10/07 08:43:44;;;;;;;2.72;2.40;;;;;;;18.16;61.43;97477.38;10508824;28;20642;-28
2022/10/07 08:48:53;;;;;;;3.22;2.50;;;;;;;18.15;61.29;97473.13;10513754;28;20028;-29
2022/10/07 08:53:57;;;;;;;3.00;2.25;;;;;;;18.15;61.33;97465.53;10512558;28;20093;-28
2022/10/07 08:59:20;;;;;;;3.45;3.00;;;;;;;18.14;61.27;97454.53;10515622;28;20075;-29
2022/10/07 09:04:42;;;;;;;5.47;2.53;;;;;;;18.13;61.63;97451.97;10519078;28;20127;-27
2022/10/07 09:09:53;;;;;;;4.20;2.72;;;;;;;18.14;61.53;97441.00;10510739;28;20056;-28
2022/10/07 09:14:56;;;;;;;4.38;2.35;;;;;;;18.14;61.40;97443.53;10512023;28;20028;-29
2022/10/07 09:20:05;;;;;;;5.22;2.30;;;;;;;18.13;61.33;97429.16;10512502;28;20047;-28
2022/10/07 09:25:12;;;;;;;4.28;2.55;;;;;;;18.18;63.07;97425.00;10517799;28;20569;-28
2022/10/07 09:30:13;;;;;;;5.97;2.33;;;;;;;18.17;63.13;97419.06;10513596;28;20128;-28
2022/10/07 09:35:20;;;;;;;5.75;2.40;;;;;;;18.20;62.87;97420.81;10511906;28;20111;-29
2022/10/07 09:40:30;;;;;;;3.70;2.50;;;;;;;18.15;62.32;97407.25;10510153;28;20020;-29
2022/10/07 09:45:32;;;;;;;2.72;2.17;;;;;;;18.14;61.39;97400.44;10514516;28;20024;-28
2022/10/07 09:50:38;;;;;;;4.75;2.20;;;;;;;18.14;61.60;97397.91;10513566;28;20119;-28
2022/10/07 09:55:40;;;;;;;2.83;2.05;;;;;;;18.14;61.39;97397.91;10505709;28;20043;-28
2022/10/07 10:00:45;;;;;;;2.63;1.85;;;;;;;18.14;61.74;97400.44;10517776;28;20032;-28
2022/10/07 10:06:01;;;;;;;4.13;2.25;;;;;;;18.10;61.27;97391.13;10503608;28;20917;-28
2022/10/07 10:11:16;;;;;;;2.72;1.98;;;;;;;18.12;61.44;97386.91;10527195;28;20024;-29
2022/10/07 10:16:26;;;;;;;2.53;2.17;;;;;;;18.13;61.66;97383.53;10511213;28;20035;-28
2022/10/07 10:21:34;;;;;;;4.22;2.47;;;;;;;18.16;61.89;97386.97;10507922;28;20025;-29
2022/10/07 10:26:54;;;;;;;4.57;3.00;;;;;;;18.19;63.48;97376.88;10510595;28;20032;-29
2022/10/07 10:32:01;;;;;;;4.50;3.20;;;;;;;18.20;63.80;97370.13;10513450;28;20043;-28
2022/10/07 10:37:15;;;;;;;9.65;2.95;;;;;;;18.22;63.69;97366.78;10512891;28;20028;-28
2022/10/07 10:42:21;;;;;;;5.45;2.75;;;;;;;18.16;62.65;97360.78;10505511;28;20508;-29
2022/10/07 10:47:30;;;;;;;;;;;;;;;18.15;61.99;97339.66;10512168;28;20031;-30
2022/10/07 10:52:44;;;;;;;4.43;2.13;;;;;;;18.16;61.38;97343.88;10517863;28;19919;-28
2022/10/07 10:57:56;;;;;;;3.40;2.08;;;;;;;18.15;61.60;97338.81;10512525;28;20024;-30
2022/10/07 11:03:18;;;;;;;2.75;1.95;;;;;;;18.16;61.46;97337.97;10513090;28;20039;-28
2022/10/07 11:08:24;;;;;;;4.30;2.10;;;;;;;18.15;61.46;97331.22;10511213;28;20040;-28
2022/10/07 11:13:56;;;;;;;3.30;2.23;;;;;;;18.15;61.44;97321.09;10513098;28;20032;-29
2022/10/07 11:19:08;;;;;;;6.13;1.85;;;;;;;18.12;61.70;97310.88;10510814;28;20067;-29
2022/10/07 11:24:22;;;;;;;10.73;2.78;;;;;;;18.20;62.98;97301.69;10509119;28;20043;-28
2022/10/07 11:29:35;;;;;;;4.15;2.55;;;;;;;18.18;62.13;97300.81;10516121;28;20028;-28
2022/10/07 11:34:42;;;;;;;12.82;3.33;;;;;;;18.23;64.59;97296.63;10511039;28;20158;-31
2022/10/07 11:39:43;;;;;;;9.60;3.47;;;;;;;18.29;65.02;97291.63;10508903;28;20111;-28
2022/10/07 11:44:46;;;;;;;11.25;2.78;;;;;;;18.21;64.05;97278.91;10515137;28;20498;-30
2022/10/07 11:49:56;;;;;;;6.35;3.10;;;;;;;18.21;63.29;97293.25;10501163;28;20033;-28
2022/10/07 11:55:04;;;;;;;3.80;2.63;;;;;;;18.20;62.31;97271.28;10511575;28;20038;-29
2022/10/07 12:00:07;;;;;;;6.63;3.45;;;;;;;18.21;62.24;97272.97;10507318;28;20028;-29
2022/10/07 12:05:51;;;;;;;8.48;2.53;;;;;;;18.23;62.71;97262.00;10508740;28;20040;-28
2022/10/07 12:11:16;;;;;;;10.55;2.72;;;;;;;18.22;61.92;97259.44;10510598;28;20031;-29
2022/10/07 12:16:22;;;;;;;9.23;2.63;;;;;;;18.20;61.98;97251.84;10503205;28;20032;-28
2022/10/07 12:21:23;;;;;;;6.63;3.88;;;;;;;18.19;61.82;97240.03;10518318;28;20032;-29
2022/10/07 12:26:29;;;;;;;7.25;3.65;;;;;;;18.20;63.50;97235.78;10512235;28;20451;-28
2022/10/07 12:31:30;;;;;;;4.40;3.00;;;;;;;18.19;61.66;97240.03;10520470;28;20032;-28
2022/10/07 12:36:30;;;;;;;11.52;4.53;;;;;;;18.40;65.69;97234.34;10516797;28;20043;-28
2022/10/07 12:41:35;;;;;;;39.63;6.10;;;;;;;18.38;66.03;97230.91;10509003;28;20032;-29
2022/10/07 12:46:35;;;;;;;23.20;7.00;;;;;;;18.39;65.34;97222.47;10511550;28;20028;-28
2022/10/07 12:51:38;;;;;;;4.45;2.42;;;;;;;18.34;62.19;97214.81;10511517;28;20036;-28
2022/10/07 12:56:42;;;;;;;6.05;2.67;;;;;;;18.26;62.06;97210.50;10517774;28;20454;-29
2022/10/07 13:02:01;;;;;;;8.48;2.35;;;;;;;18.22;61.60;97204.56;10514618;28;20032;-29
2022/10/07 13:07:32;;;;;;;7.25;2.58;;;;;;;18.21;61.66;97199.47;10514143;28;20059;-28
2022/10/07 13:12:52;;;;;;;3.40;2.00;;;;;;;18.20;61.52;97190.16;10514351;28;20115;-29
2022/10/07 13:18:28;;;;;;;6.18;2.60;;;;;;;18.18;61.32;97184.25;10513743;28;20096;-28
2022/10/07 13:23:30;;;;;;;3.35;1.70;;;;;;;18.19;61.42;97173.28;10513294;28;20069;-28
2022/10/07 13:28:42;;;;;;;4.00;1.80;;;;;;;18.18;61.35;97161.44;10513509;28;20028;-28
2022/10/07 13:33:43;;;;;;;3.50;2.17;;;;;;;18.16;61.54;97153.81;10510858;28;20468;-29
2022/10/07 13:38:46;;;;;;;9.75;3.90;;;;;;;18.21;64.10;97156.38;10513432;28;20107;-29
2022/10/07 13:43:51;;;;;;;26.83;4.95;;;;;;;18.34;65.78;97143.00;10511122;28;20453;-28
2022/10/07 13:48:55;;;;;;;12.30;4.95;;;;;;;18.38;65.84;97144.72;10512231;28;20219;-28
2022/10/07 13:54:01;;;;;;;13.18;2.95;;;;;;;18.34;62.92;97132.88;10509642;28;20446;-28
2022/10/07 13:59:03;;;;;;;10.05;3.70;;;;;;;18.30;61.97;97134.53;10518059;28;20027;-29
2022/10/07 14:04:17;;;;;;;6.32;2.60;;;;;;;18.23;61.88;97115.00;10512023;28;20134;-29
2022/10/07 14:09:25;;;;;;;8.07;3.22;;;;;;;18.18;61.77;97119.19;10515051;28;20408;-28
2022/10/07 14:14:37;;;;;;;6.00;2.38;;;;;;;18.21;61.63;97115.84;10515168;28;20052;-28
2022/10/07 14:19:37;;;;;;;7.80;2.63;;;;;;;18.19;61.62;97110.78;10515364;28;20515;-29
2022/10/07 14:24:38;;;;;;;6.93;2.95;;;;;;;18.20;61.73;97098.94;10512167;28;20040;-30
2022/10/07 14:29:38;;;;;;;4.15;2.03;;;;;;;18.19;61.50;97102.31;10511798;28;20089;-30
2022/10/07 14:40:01;;;;;;;5.82;2.60;;;;;;;18.16;61.52;97079.50;10505412;28;20275;-28
2022/10/07 14:45:07;;;;;;;10.43;3.87;;;;;;;18.27;65.43;97080.41;10515707;28;20035;-28
2022/10/07 14:50:12;;;;;;;14.88;5.07;;;;;;;18.37;65.99;97074.59;10507937;28;20551;-29
2022/10/07 14:55:25;;;;;;;6.85;3.22;;;;;;;18.33;64.86;97055.16;10515485;28;20032;-28
2022/10/07 15:00:28;;;;;;;2.55;2.15;;;;;;;18.30;62.59;97058.50;10507799;28;20032;-28
2022/10/07 15:05:31;;;;;;;7.55;3.95;;;;;;;18.32;64.13;97044.13;10506072;28;20384;-28
2022/10/07 15:10:32;;;;;;;13.45;4.75;;;;;;;18.28;62.33;97044.09;10511046;28;20033;-31
2022/10/07 15:15:32;;;;;;;15.70;3.58;;;;;;;18.24;62.15;97037.31;10508678;28;20032;-30
2022/10/07 15:20:33;;;;;;;10.33;3.23;;;;;;;18.27;63.64;97039.84;10510296;28;20070;-30
2022/10/07 15:25:34;;;;;;;4.20;2.47;;;;;;;18.27;63.02;97037.31;10509283;28;20034;-32
2022/10/07 15:30:34;;;;;;;7.93;2.95;;;;;;;18.23;61.99;97028.00;10512297;28;20328;-31
2022/10/07 15:35:35;;;;;;;6.37;2.60;;;;;;;18.26;64.14;97028.03;10511401;28;20016;-29
2022/10/07 15:40:51;;;;;;;10.47;3.23;;;;;;;18.26;63.34;97018.72;10507053;28;20020;-29
2022/10/07 15:45:51;;;;;;;10.17;3.77;;;;;;;18.35;66.71;97017.97;10508881;28;20844;-29
2022/10/07 15:50:55;;;;;;;11.30;3.92;;;;;;;18.47;65.95;97029.03;10510015;28;20317;-29
2022/10/07 15:55:56;;;;;;;25.00;5.20;;;;;;;18.44;65.36;97023.09;10508318;28;20024;-29
2022/10/07 16:00:59;;;;;;;17.13;4.18;;;;;;;18.35;64.43;97017.97;10541878;28;20070;-28
2022/10/07 16:06:01;;;;;;;18.70;3.90;;;;;;;18.32;64.14;97017.97;10510821;28;20025;-28
2022/10/07 16:11:03;;;;;;;11.02;3.70;;;;;;;18.30;63.56;97015.41;10523600;28;20038;-28
2022/10/07 16:16:06;;;;;;;10.55;3.45;;;;;;;18.28;62.53;97011.13;10519186;28;20031;-28
2022/10/07 16:21:10;;;;;;;7.68;3.03;;;;;;;18.25;62.17;97021.25;10515304;28;20040;-28
2022/10/07 16:26:13;;;;;;;15.95;3.78;;;;;;;18.24;62.26;97015.34;10511914;28;20063;-28
2022/10/07 16:31:13;;;;;;;7.75;2.08;;;;;;;18.22;61.98;97011.09;10518512;28;20028;-28
2022/10/07 16:36:14;;;;;;;5.60;2.40;;;;;;;18.09;62.21;97004.28;10523186;28;20032;-28
2022/10/07 16:41:16;;;;;;;10.27;3.63;;;;;;;18.30;67.78;97019.63;10513538;28;20273;-29
2022/10/07 16:46:19;;;;;;;6.57;4.07;;;;;;;18.39;66.41;97020.53;10517761;28;20119;-28
2022/10/07 16:51:22;;;;;;;8.88;3.00;;;;;;;18.35;64.73;97028.94;10513976;28;20047;-28
2022/10/07 16:56:22;;;;;;;4.10;2.72;;;;;;;18.17;62.67;97007.69;10520931;28;20024;-28
2022/10/07 17:01:25;;;;;;;8.40;4.27;;;;;;;18.25;62.30;97029.69;10512518;28;20391;-28
2022/10/07 17:06:29;;;;;;;12.57;3.55;;;;;;;18.18;64.51;97033.03;10516583;28;20021;-29
2022/10/07 17:11:32;;;;;;;6.43;1.98;;;;;;;18.20;62.70;97031.38;10516624;28;20115;-28
2022/10/07 17:16:36;;;;;;;23.92;3.83;;;;;;;18.21;62.49;97028.00;10513311;28;20150;-28
2022/10/07 17:21:38;;;;;;;12.13;2.67;;;;;;;18.21;62.53;97033.06;10508737;28;20039;-28
2022/10/07 17:26:39;;;;;;;6.32;2.65;;;;;;;18.17;62.37;97027.97;10508563;28;20078;-28
2022/10/07 17:31:42;;;;;;;11.48;2.85;;;;;;;18.17;62.21;97022.91;10512185;28;20460;-28
2022/10/07 17:36:42;;;;;;;14.77;2.95;;;;;;;18.20;62.62;97030.50;10515877;28;20507;-28
2022/10/07 17:41:43;;;;;;;15.15;4.25;;;;;;;18.26;67.44;97038.16;10507949;28;20029;-28
2022/10/07 17:46:44;;;;;;;15.45;3.50;;;;;;;18.35;67.69;97034.00;10515377;28;20025;-28
2022/10/07 17:51:44;;;;;;;8.57;3.47;;;;;;;18.37;66.60;97037.41;10516778;28;20035;-30
2022/10/07 17:56:46;;;;;;;8.07;3.23;;;;;;;18.25;64.17;97021.25;10514117;28;20068;-28
2022/10/07 18:01:47;;;;;;;13.77;3.30;;;;;;;18.22;63.04;97018.69;10511606;28;20058;-29
2022/10/07 18:06:47;;;;;;;7.35;3.25;;;;;;;18.23;62.66;97030.53;10514548;28;20078;-28
2022/10/07 18:17:08;;;;;;;7.40;3.30;;;;;;;18.19;62.43;97032.22;10508435;28;20028;-28
2022/10/07 18:22:08;;;;;;;8.18;2.75;;;;;;;18.20;62.42;97041.50;10514739;28;20024;-29
2022/10/07 18:27:09;;;;;;;2.42;1.80;;;;;;;18.19;62.23;97033.91;10507780;28;20081;-29
2022/10/07 18:32:09;;;;;;;5.03;2.03;;;;;;;18.19;62.63;97034.75;10510119;28;20110;-28
2022/10/07 18:37:10;;;;;;;4.23;1.80;;;;;;;18.12;62.27;97019.47;10515366;28;20596;-28
2022/10/07 18:42:10;;;;;;;9.98;4.60;;;;;;;18.20;62.07;97025.44;10505490;28;20290;-28
2022/10/07 18:47:10;;;;;;;31.25;8.82;;;;;;;18.30;67.51;97022.16;10511138;28;20043;-28
2022/10/07 18:52:11;;;;;;;14.57;5.70;;;;;;;18.37;67.46;97031.50;10515397;28;20036;-28
2022/10/07 18:57:11;;;;;;;18.57;5.37;;;;;;;18.32;64.30;97033.16;10513058;28;20043;-28
2022/10/07 19:02:12;;;;;;;10.50;5.10;;;;;;;18.24;62.65;97025.47;10509374;28;20024;-28
2022/10/07 19:07:12;;;;;;;5.97;2.47;;;;;;;18.17;62.57;97012.78;10505106;28;20036;-27
2022/10/07 19:30:12;;;;;;;11.27;6.03;;;;;;;18.41;67.06;97028.97;10559496;27;20043;-30
2022/10/07 19:35:12;;;;;;;12.43;5.40;;;;;;;18.42;67.82;97034.91;10576059;28;20035;-28
2022/10/07 19:40:13;;;;;;;6.80;3.33;;;;;;;18.34;64.55;97026.41;10597082;28;20496;-29
2022/10/07 19:45:14;;;;;;;11.73;4.43;;;;;;;18.33;63.08;97034.88;10590671;28;20288;-29
2022/10/07 19:50:14;;;;;;;12.95;4.20;;;;;;;18.27;62.83;97030.56;10586111;28;20281;-28
2022/10/07 19:55:15;;;;;;;8.40;3.92;;;;;;;18.24;62.60;97044.91;10601271;28;20035;-29
2022/10/07 20:00:15;;;;;;;9.98;4.10;;;;;;;18.23;62.74;97038.13;10584974;28;20057;-28
2022/10/07 20:05:16;;;;;;;6.70;3.03;;;;;;;18.23;62.55;97038.13;10585403;28;20126;-28
2022/10/07 20:10:17;;;;;;;5.30;3.28;;;;;;;18.21;62.55;97055.88;10595382;28;20598;-28
2022/10/07 20:15:18;;;;;;;7.05;3.28;;;;;;;18.19;62.35;97044.88;10592359;28;20485;-29
2022/10/07 20:20:19;;;;;;;10.90;4.55;;;;;;;18.29;66.88;97043.25;10583201;27;20035;-29
2022/10/07 20:25:20;;;;;;;11.25;4.57;;;;;;;18.35;67.24;97044.16;10575239;27;20563;-28
2022/10/07 20:30:20;;;;;;;10.48;3.90;;;;;;;18.34;65.60;97051.75;10583105;27;20028;-28
2022/10/07 20:35:23;;;;;;;6.57;3.63;;;;;;;18.29;63.00;97045.78;10566115;28;20024;-29
2022/10/07 20:45:57;;;;;;;9.02;3.75;;;;;;;18.22;62.63;97052.50;10551913;27;20451;-28
2022/10/07 20:51:07;;;;;;;3.63;2.80;;;;;;;18.25;62.68;97049.16;10560389;28;20112;-29
2022/10/07 20:56:08;;;;;;;3.97;2.42;;;;;;;18.22;62.09;97056.72;10553924;28;20605;-28
2022/10/07 21:01:08;;;;;;;7.88;2.55;;;;;;;18.26;62.22;97053.38;10560159;28;20393;-28
2022/10/07 21:06:09;;;;;;;4.77;3.20;;;;;;;18.23;62.33;97058.41;10554074;28;20047;-26
2022/10/07 21:11:09;;;;;;;7.15;4.00;;;;;;;18.31;65.34;97042.44;10561680;28;20032;-28
2022/10/07 21:16:10;;;;;;;7.27;3.90;;;;;;;18.38;66.46;97038.25;10558067;28;20100;-28
2022/10/07 21:21:10;;;;;;;4.57;2.20;;;;;;;18.35;62.67;97034.00;10556261;28;20055;-29
2022/10/07 21:26:11;;;;;;;6.30;2.23;;;;;;;18.26;61.97;97039.00;10559195;28;20779;-28
2022/10/07 21:31:15;;;;;;;3.05;2.00;;;;;;;18.28;61.92;97026.34;10555214;28;20292;-29
2022/10/07 21:36:18;;;;;;;3.35;2.40;;;;;;;18.22;62.08;97026.28;10556897;28;20031;-28
2022/10/07 21:41:22;;;;;;;2.85;2.17;;;;;;;18.24;62.00;97029.72;10561793;28;20035;-29
2022/10/07 21:46:25;;;;;;;4.70;2.10;;;;;;;18.24;62.02;97028.00;10557771;28;20480;-29
2022/10/07 21:51:26;;;;;;;3.13;2.28;;;;;;;18.17;61.98;97012.78;10557147;28;20024;-28
2022/10/07 21:56:28;;;;;;;3.30;2.20;;;;;;;18.26;62.09;97025.50;10562464;28;20039;-29
2022/10/07 22:01:29;;;;;;;5.18;2.40;;;;;;;18.24;62.03;97019.56;10556723;28;20062;-28
2022/10/07 22:11:49;;;;;;;5.72;3.30;;;;;;;18.43;65.86;97017.16;10560417;28;20058;-31
2022/10/07 22:16:50;;;;;;;5.32;2.42;;;;;;;18.38;62.45;97017.97;10551234;28;20505;-31
2022/10/07 22:21:50;;;;;;;3.83;2.17;;;;;;;18.31;61.91;97016.25;10554793;28;20039;-29
2022/10/07 22:26:51;;;;;;;3.70;2.53;;;;;;;18.27;61.70;97010.31;10560064;28;20286;-30
2022/10/07 22:31:52;;;;;;;7.00;2.20;;;;;;;18.18;61.84;96989.94;10558320;28;20461;-29
2022/10/07 22:36:53;;;;;;;4.07;2.63;;;;;;;18.25;62.17;97001.00;10557630;28;20294;-29
2022/10/07 22:41:53;;;;;;;5.05;2.50;;;;;;;18.23;62.09;97005.19;10564768;28;20036;-29
2022/10/07 22:46:55;;;;;;;4.47;2.30;;;;;;;18.23;61.96;97012.78;10561752;28;20429;-30
2022/10/07 22:51:57;;;;;;;3.92;2.38;;;;;;;18.21;62.24;97004.31;10558634;28;20286;-29
2022/10/07 22:56:57;;;;;;;3.92;2.03;;;;;;;18.22;62.13;96990.81;10562770;28;20032;-30
2022/10/07 23:01:57;;;;;;;7.70;3.53;;;;;;;18.33;66.10;97004.44;10566123;28;20031;-29
2022/10/07 23:06:58;;;;;;;7.17;2.73;;;;;;;18.36;66.02;97000.25;10556438;28;20108;-30
2022/10/07 23:11:58;;;;;;;3.67;1.93;;;;;;;18.35;62.49;96987.56;10560599;28;20038;-29
2022/10/07 23:16:59;;;;;;;2.85;2.15;;;;;;;18.27;61.95;96999.31;10566106;28;20027;-31
2022/10/07 23:21:59;;;;;;;2.20;1.73;;;;;;;18.26;61.81;96997.63;10554569;28;20043;-30
2022/10/07 23:27:00;;;;;;;2.60;2.20;;;;;;;18.24;61.72;96986.63;10559052;28;20028;-30
2022/10/07 23:32:00;;;;;;;3.33;2.05;;;;;;;18.20;61.99;96983.22;10559983;28;20040;-29
2022/10/07 23:37:00;;;;;;;2.10;1.83;;;;;;;18.23;62.17;96982.38;10555706;28;20417;-29
2022/10/07 23:42:01;;;;;;;2.27;1.80;;;;;;;18.23;61.77;96987.44;10561946;28;20285;-29
2022/10/07 23:47:02;;;;;;;2.35;1.77;;;;;;;18.21;62.19;96979.00;10558692;28;20550;-29
2022/10/07 23:52:03;;;;;;;2.33;2.00;;;;;;;18.21;62.22;96979.84;10557197;28;20028;-30
2022/10/07 23:57:03;;;;;;;3.75;2.40;;;;;;;18.28;65.16;96976.50;10559329;28;20038;-30
